KHBG/HBG METAR and TAF weather

Enter ICAO airport designator
Station Type Date Time Source
KHBG METAR 2022/06/28 14:53 UTC NOAA

KHBG 281453Z AUTO 04004KT 10SM CLR 28/22 A3009 RMK AO2 SLP188 T02780217 51006


Station Type Date Time Source
KHBG Decoded METAR 2022/06/28 14:53 UTC NOAA

HATTIESBURG CHAIN MUNICIPAL, MS, United States (KHBG) 31-16N 89-15W 44M
Jun 28, 2022 - 10:53 AM EDT / 2022.06.28 1453 UTC
Wind: from the NE (040 degrees) at 5 MPH (4 KT):0
Visibility: 10 mile(s):0
Sky conditions: clear
Temperature: 82.0 F (27.8 C)
Dew Point: 71.1 F (21.7 C)
Relative Humidity: 69%
Pressure (altimeter): 30.09 in. Hg (1018 hPa)
Pressure tendency: 0.02 inches (0.6 hPa) higher than three hours ago
ob: KHBG 281453Z AUTO 04004KT 10SM CLR 28/22 A3009 RMK AO2 SLP188 T02780217 51006
cycle: 15

Station Type Date Time Source
KHBG TAF 2022/06/28 12:22 UTC NOAA

TAF KHBG 281120Z 2812/2912 01005KT P6SM FEW050 SCT090
FM281800 04006KT P6SM VCSH BKN050 OVC100
FM282000 05005KT 4SM TSRA BKN050CB
FM290000 00000KT P6SM -RA SCT070 OVC120
FM290400 00000KT P6SM OVC250

Example: see airport list